Time;durP1;ratioP1;P1;durP2;ratioP2;P2;SDS_P1;SDS_P2;PMS_P1;PMS_P2;Temp;Humidity;BMP_temperature;BMP_pressure;BME280_temperature;BME280_humidity;BME280_pressure;Samples;Min_cycle;Max_cycle;Signal;HPM_P1;HPM_P2
2022/06/20 00:03:27;;;;;;;9.63;1.90;;;;;;;;;;10390850;28;20453;-46
2022/06/20 00:08:28;;;;;;;6.63;2.20;;;;;;;;;;10381001;28;20044;-48
2022/06/20 00:13:34;;;;;;;10.18;2.00;;;;;;;;;;10374328;28;20397;-46
2022/06/20 00:18:35;;;;;;;6.93;2.35;;;;;;;;;;10391977;28;20088;-47
2022/06/20 00:23:35;;;;;;;5.93;2.20;;;;;;;;;;10391020;28;20091;-46
2022/06/20 00:28:37;;;;;;;5.20;2.00;;;;;;;;;;10386537;28;20053;-47
2022/06/20 00:33:37;;;;;;;5.20;1.98;;;;;;;;;;10393734;28;20026;-49
2022/06/20 00:38:38;;;;;;;5.28;1.65;;;;;;;;;;10372593;28;20469;-47
2022/06/20 00:43:45;;;;;;;3.72;1.63;;;;;;;;;;10379958;28;20033;-46
2022/06/20 00:48:58;;;;;;;4.45;1.60;;;;;;;;;;10382903;28;20034;-46
2022/06/20 00:54:11;;;;;;;5.78;1.30;;;;;;;;;;10386524;28;20034;-46
2022/06/20 00:59:16;;;;;;;5.45;1.52;;;;;;;;;;10369138;28;20030;-47
2022/06/20 01:04:31;;;;;;;2.92;1.55;;;;;;;;;;10379855;28;20265;-46
2022/06/20 01:09:37;;;;;;;3.65;1.67;;;;;;;;;;10389201;28;20034;-48
2022/06/20 01:14:38;;;;;;;5.72;1.38;;;;;;;;;;10377433;28;20558;-46
2022/06/20 01:20:01;;;;;;;4.50;1.90;;;;;;;;;;10380944;28;20030;-45
2022/06/20 01:25:38;;;;;;;3.35;1.60;;;;;;;;;;10377688;28;20026;-46
2022/06/20 01:30:43;;;;;;;9.10;1.80;;;;;;;;;;10385936;28;20029;-46
2022/06/20 01:46:28;;;;;;;5.80;1.50;;;;;;;;;;10402666;28;20050;-46
2022/06/20 01:51:56;;;;;;;3.45;1.75;;;;;;;;;;10383991;28;20033;-45
2022/06/20 01:56:57;;;;;;;;;;;;;;;;;;10386192;28;20030;-45
2022/06/20 02:01:57;;;;;;;5.72;1.42;;;;;;;;;;10404355;28;19917;-46
2022/06/20 02:07:01;;;;;;;3.17;1.50;;;;;;;;;;10382972;28;20097;-48
2022/06/20 02:12:03;;;;;;;2.80;1.40;;;;;;;;;;10405265;28;20033;-46
2022/06/20 02:17:11;;;;;;;4.70;1.80;;;;;;;;;;10393584;28;20022;-46
2022/06/20 02:22:13;;;;;;;7.07;1.80;;;;;;;;;;10387338;28;20413;-49
2022/06/20 02:27:27;;;;;;;4.10;1.50;;;;;;;;;;10385735;28;20029;-46
2022/06/20 02:32:35;;;;;;;4.80;1.88;;;;;;;;;;10373246;28;20057;-52
2022/06/20 02:37:36;;;;;;;1.63;1.48;;;;;;;;;;10371175;28;20096;-50
2022/06/20 02:42:46;;;;;;;2.25;1.38;;;;;;;;;;10380971;28;20370;-46
2022/06/20 02:47:51;;;;;;;5.50;1.42;;;;;;;;;;10381971;28;20044;-46
2022/06/20 02:53:00;;;;;;;2.15;1.40;;;;;;;;;;10376081;28;20117;-47
2022/06/20 02:58:11;;;;;;;2.42;1.50;;;;;;;;;;10398073;28;20104;-48
2022/06/20 03:03:26;;;;;;;6.57;1.98;;;;;;;;;;10388685;28;20474;-51
2022/06/20 03:08:27;;;;;;;4.07;1.58;;;;;;;;;;10382775;28;20452;-46
2022/06/20 03:13:28;;;;;;;2.50;1.77;;;;;;;;;;10382802;28;20034;-47
2022/06/20 03:18:29;;;;;;;13.52;1.90;;;;;;;;;;10378486;28;20030;-46
2022/06/20 03:23:34;;;;;;;5.20;1.98;;;;;;;;;;10384831;28;20084;-45
2022/06/20 03:28:34;;;;;;;4.10;2.30;;;;;;;;;;10368075;28;20185;-45
2022/06/20 03:33:35;;;;;;;1.98;1.40;;;;;;;;;;10373586;28;20627;-49
2022/06/20 03:38:38;;;;;;;4.25;1.60;;;;;;;;;;10378739;28;20033;-49
2022/06/20 03:43:42;;;;;;;3.67;1.58;;;;;;;;;;10393861;28;20512;-51
2022/06/20 03:49:03;;;;;;;5.47;1.52;;;;;;;;;;10383980;28;20042;-47
2022/06/20 03:54:28;;;;;;;2.00;1.27;;;;;;;;;;10377046;28;20025;-47
2022/06/20 03:59:55;;;;;;;2.15;1.63;;;;;;;;;;10393002;28;20026;-49
2022/06/20 04:05:30;;;;;;;2.63;1.55;;;;;;;;;;10389810;28;20049;-54
2022/06/20 04:10:57;;;;;;;3.17;1.73;;;;;;;;;;10394603;28;20481;-46
2022/06/20 04:16:09;;;;;;;2.90;1.40;;;;;;;;;;10393820;28;20039;-47
2022/06/20 04:21:19;;;;;;;3.63;1.40;;;;;;;;;;10386720;28;20084;-48
2022/06/20 04:26:33;;;;;;;4.25;1.63;;;;;;;;;;10394918;28;20180;-49
2022/06/20 04:32:00;;;;;;;4.05;1.48;;;;;;;;;;10383650;28;20038;-47
2022/06/20 04:37:16;;;;;;;1.85;1.30;;;;;;;;;;10378549;28;20029;-47
2022/06/20 04:42:40;;;;;;;2.53;1.45;;;;;;;;;;10379731;28;20444;-49
2022/06/20 04:47:55;;;;;;;4.65;1.80;;;;;;;;;;10381536;28;20042;-48
2022/06/20 04:53:11;;;;;;;2.40;1.33;;;;;;;;;;10391708;28;20065;-47
2022/06/20 04:58:19;;;;;;;3.22;1.63;;;;;;;;;;10368272;28;20022;-47
2022/06/20 05:03:25;;;;;;;3.20;1.40;;;;;;;;;;10389786;28;20444;-48
2022/06/20 05:08:31;;;;;;;2.05;1.23;;;;;;;;;;10378290;28;20045;-47
2022/06/20 05:13:44;;;;;;;11.30;1.40;;;;;;;;;;10397510;28;20022;-47
2022/06/20 05:18:52;;;;;;;6.82;1.90;;;;;;;;;;10403253;28;20033;-54
2022/06/20 05:24:02;;;;;;;7.13;1.63;;;;;;;;;;11312808;22;20412;-57
2022/06/20 05:29:09;;;;;;;13.10;1.85;;;;;;;;;;10410404;28;20430;-52
2022/06/20 05:34:09;;;;;;;7.97;2.00;;;;;;;;;;10390212;28;20404;-56
2022/06/20 05:39:28;;;;;;;7.47;1.90;;;;;;;;;;10366153;28;20044;-57
2022/06/20 05:44:29;;;;;;;9.38;2.55;;;;;;;;;;10366114;28;20150;-53
2022/06/20 05:49:37;;;;;;;16.48;3.25;;;;;;;;;;10367574;28;20484;-57
2022/06/20 05:54:45;;;;;;;21.58;3.42;;;;;;;;;;10349374;28;20030;-55
2022/06/20 05:59:58;;;;;;;9.85;3.30;;;;;;;;;;10362059;28;20042;-55
2022/06/20 06:05:31;;;;;;;12.60;3.65;;;;;;;;;;10366879;28;20037;-55
2022/06/20 06:10:47;;;;;;;8.40;3.28;;;;;;;;;;10369611;28;20058;-60
2022/06/20 06:21:19;;;;;;;6.35;2.95;;;;;;;;;;10371602;28;20026;-53
2022/06/20 06:26:20;;;;;;;12.23;3.42;;;;;;;;;;10361598;28;20058;-53
2022/06/20 06:31:36;;;;;;;5.80;3.38;;;;;;;;;;10369284;28;20500;-56
2022/06/20 06:36:49;;;;;;;9.02;3.13;;;;;;;;;;10367183;28;20080;-60
2022/06/20 06:41:59;;;;;;;11.65;3.22;;;;;;;;;;10357700;28;20040;-57
2022/06/20 06:47:02;;;;;;;10.38;3.00;;;;;;;;;;10367404;28;20109;-55
2022/06/20 06:52:16;;;;;;;8.05;2.90;;;;;;;;;;10367373;28;20354;-56
2022/06/20 06:57:27;;;;;;;6.43;3.00;;;;;;;;;;10372199;28;20029;-56
2022/06/20 07:02:32;;;;;;;5.22;2.80;;;;;;;;;;10373690;28;20038;-58
2022/06/20 07:07:42;;;;;;;6.55;3.17;;;;;;;;;;10372405;28;20392;-61
2022/06/20 07:12:49;;;;;;;6.95;2.88;;;;;;;;;;10360022;28;20034;-56
2022/06/20 07:17:50;;;;;;;4.85;3.00;;;;;;;;;;10363260;28;20038;-54
2022/06/20 07:22:52;;;;;;;6.35;3.17;;;;;;;;;;10363748;28;20026;-55
2022/06/20 07:28:12;;;;;;;8.73;3.15;;;;;;;;;;10359923;28;20046;-55
2022/06/20 07:33:24;;;;;;;6.32;3.10;;;;;;;;;;10362678;28;20092;-55
2022/06/20 07:38:43;;;;;;;7.90;2.83;;;;;;;;;;10369904;28;20099;-55
2022/06/20 07:44:01;;;;;;;5.40;2.88;;;;;;;;;;10363355;28;20025;-59
2022/06/20 07:49:11;;;;;;;7.40;2.90;;;;;;;;;;10366286;28;20025;-60
2022/06/20 07:54:47;;;;;;;4.80;3.22;;;;;;;;;;10365961;28;20029;-60
2022/06/20 07:59:57;;;;;;;9.13;3.08;;;;;;;;;;10357232;28;20504;-61
2022/06/20 08:05:00;;;;;;;7.15;3.08;;;;;;;;;;10366872;28;20381;-57
2022/06/20 08:10:07;;;;;;;10.13;3.50;;;;;;;;;;10376266;28;20061;-59
2022/06/20 08:15:42;;;;;;;6.85;2.78;;;;;;;;;;10352922;28;20025;-56
2022/06/20 08:20:56;;;;;;;8.55;3.13;;;;;;;;;;10358052;28;20050;-57
2022/06/20 08:26:01;;;;;;;8.27;2.83;;;;;;;;;;10355068;28;20580;-55
2022/06/20 08:31:20;;;;;;;7.32;3.15;;;;;;;;;;10360983;28;20114;-56
2022/06/20 08:36:44;;;;;;;11.18;2.90;;;;;;;;;;10359159;28;20034;-59
2022/06/20 08:42:34;;;;;;;10.75;2.80;;;;;;;;;;10365449;28;20362;-56
2022/06/20 08:48:24;;;;;;;4.55;3.20;;;;;;;;;;10373704;28;20038;-56
2022/06/20 08:53:52;;;;;;;3.85;2.58;;;;;;;;;;10368754;28;20040;-56
2022/06/20 08:59:15;;;;;;;3.05;2.30;;;;;;;;;;10370702;28;20076;-56
2022/06/20 09:04:40;;;;;;;4.45;2.60;;;;;;;;;;10371193;28;20485;-60
2022/06/20 09:10:02;;;;;;;6.07;2.78;;;;;;;;;;10374921;28;20084;-56
2022/06/20 09:15:11;;;;;;;5.53;2.45;;;;;;;;;;10361357;28;20033;-55
2022/06/20 09:20:34;;;;;;;12.18;2.72;;;;;;;;;;10379372;28;20022;-56
2022/06/20 09:26:13;;;;;;;9.48;3.10;;;;;;;;;;10362900;28;20056;-56
2022/06/20 09:31:48;;;;;;;6.63;2.80;;;;;;;;;;10366133;28;20031;-55
2022/06/20 09:37:22;;;;;;;4.32;2.53;;;;;;;;;;10369015;28;20389;-59
2022/06/20 09:43:06;;;;;;;3.53;2.72;;;;;;;;;;10375098;28;20022;-57
2022/06/20 09:48:23;;;;;;;9.35;2.85;;;;;;;;;;10363642;28;20095;-60
2022/06/20 09:53:40;;;;;;;5.60;2.90;;;;;;;;;;10358413;28;20680;-54
2022/06/20 09:59:31;;;;;;;7.63;3.05;;;;;;;;;;10379047;28;20042;-60
2022/06/20 10:04:40;;;;;;;6.30;2.90;;;;;;;;;;10365428;28;20034;-61
2022/06/20 10:10:14;;;;;;;10.15;2.47;;;;;;;;;;10374464;28;20120;-60
2022/06/20 10:15:55;;;;;;;3.40;2.80;;;;;;;;;;10372112;28;20026;-54
2022/06/20 10:21:16;;;;;;;8.80;2.85;;;;;;;;;;10337715;28;20033;-56
2022/06/20 10:26:43;;;;;;;5.43;2.80;;;;;;;;;;10363556;28;20492;-59
2022/06/20 10:31:56;;;;;;;8.52;2.95;;;;;;;;;;10363753;28;20112;-57
2022/06/20 10:37:13;;;;;;;5.38;3.10;;;;;;;;;;10366741;28;20050;-56
2022/06/20 10:42:58;;;;;;;7.90;2.80;;;;;;;;;;10365724;28;20113;-58
2022/06/20 10:48:04;;;;;;;7.10;2.95;;;;;;;;;;10345080;28;20034;-55
2022/06/20 10:53:36;;;;;;;21.77;3.53;;;;;;;;;;10364703;28;20109;-56
2022/06/20 10:58:45;;;;;;;6.95;3.13;;;;;;;;;;10367894;28;20029;-55
2022/06/20 11:04:32;;;;;;;4.13;2.90;;;;;;;;;;10357451;28;20041;-57
2022/06/20 11:09:49;;;;;;;5.80;3.30;;;;;;;;;;10341964;28;20729;-56
2022/06/20 11:15:42;;;;;;;5.97;3.20;;;;;;;;;;10376470;28;20034;-57
2022/06/20 11:21:04;;;;;;;5.97;3.30;;;;;;;;;;10354802;28;20062;-56
2022/06/20 11:26:21;;;;;;;5.57;3.22;;;;;;;;;;10369300;28;20038;-59
2022/06/20 11:32:01;;;;;;;7.55;3.10;;;;;;;;;;10370459;28;20021;-61
2022/06/20 11:37:20;;;;;;;7.10;3.60;;;;;;;;;;10366599;28;20062;-59
2022/06/20 11:42:47;;;;;;;7.47;3.72;;;;;;;;;;10365797;28;20048;-57
2022/06/20 11:48:06;;;;;;;10.90;3.58;;;;;;;;;;10365410;28;20064;-57
2022/06/20 11:53:22;;;;;;;7.10;3.30;;;;;;;;;;10359369;28;20104;-54
2022/06/20 11:59:39;;;;;;;6.25;3.55;;;;;;;;;;10368661;28;20022;-55
2022/06/20 12:05:09;;;;;;;12.20;3.97;;;;;;;;;;10337990;28;20060;-56
2022/06/20 12:10:37;;;;;;;6.30;3.80;;;;;;;;;;10356574;28;20437;-56
2022/06/20 12:16:09;;;;;;;11.45;3.80;;;;;;;;;;10367551;28;20032;-57
2022/06/20 12:26:39;;;;;;;7.20;3.53;;;;;;;;;;10356265;28;20778;-57
2022/06/20 12:31:44;;;;;;;5.72;3.30;;;;;;;;;;10378178;28;20030;-56
2022/06/20 12:36:59;;;;;;;4.00;3.00;;;;;;;;;;10370839;28;20053;-56
2022/06/20 12:42:31;;;;;;;6.47;3.40;;;;;;;;;;10360963;28;20030;-56
2022/06/20 12:48:12;;;;;;;8.65;3.75;;;;;;;;;;10362403;28;20148;-55
2022/06/20 12:54:01;;;;;;;13.45;3.78;;;;;;;;;;10350234;28;20165;-58
2022/06/20 12:59:06;;;;;;;5.63;3.47;;;;;;;;;;10352877;28;20174;-55
2022/06/20 13:04:15;;;;;;;12.52;3.83;;;;;;;;;;10358622;28;20030;-57
2022/06/20 13:09:43;;;;;;;12.48;3.17;;;;;;;;;;10359550;28;20056;-57
2022/06/20 13:15:08;;;;;;;8.60;3.17;;;;;;;;;;10361589;28;20567;-55
2022/06/20 13:20:33;;;;;;;8.60;2.92;;;;;;;;;;10356812;28;20030;-62
2022/06/20 13:25:59;;;;;;;3.53;2.72;;;;;;;;;;10361095;28;20052;-60
2022/06/20 13:31:17;;;;;;;7.53;3.20;;;;;;;;;;10383929;28;20037;-57
2022/06/20 13:36:59;;;;;;;6.38;2.75;;;;;;;;;;10369578;28;20091;-62
2022/06/20 13:42:41;;;;;;;9.85;3.05;;;;;;;;;;10359822;28;20045;-55
2022/06/20 13:48:55;;;;;;;7.65;2.55;;;;;;;;;;10364001;28;20030;-60
2022/06/20 13:54:12;;;;;;;4.22;2.60;;;;;;;;;;10288283;28;20177;-53
2022/06/20 13:59:57;;;;;;;12.85;2.80;;;;;;;;;;10279609;28;20119;-55
2022/06/20 14:05:07;;;;;;;9.30;2.63;;;;;;;;;;10232408;28;20043;-57
2022/06/20 14:10:33;;;;;;;6.22;2.53;;;;;;;;;;10279559;28;20053;-57
2022/06/20 14:15:37;;;;;;;4.97;2.20;;;;;;;;;;10268888;28;20047;-57
2022/06/20 14:20:53;;;;;;;8.57;2.65;;;;;;;;;;10283789;28;20729;-57
2022/06/20 14:25:57;;;;;;;2.85;2.25;;;;;;;;;;10361377;28;20038;-56
2022/06/20 14:31:22;;;;;;;11.57;2.50;;;;;;;;;;10363974;28;20121;-55
2022/06/20 14:36:26;;;;;;;8.65;2.55;;;;;;;;;;10375363;28;20026;-55
2022/06/20 14:41:40;;;;;;;5.00;2.50;;;;;;;;;;10369777;28;20108;-59
2022/06/20 14:46:58;;;;;;;6.72;2.22;;;;;;;;;;10377888;28;20104;-61
2022/06/20 14:52:25;;;;;;;4.63;2.50;;;;;;;;;;10386061;28;20452;-54
2022/06/20 14:57:54;;;;;;;8.02;2.45;;;;;;;;;;10368992;28;20029;-61
2022/06/20 15:03:01;;;;;;;13.30;2.58;;;;;;;;;;10362629;28;20037;-61
2022/06/20 15:08:22;;;;;;;5.35;2.70;;;;;;;;;;10376135;28;20037;-57
2022/06/20 15:13:40;;;;;;;6.38;2.88;;;;;;;;;;10372614;28;20040;-56
2022/06/20 15:18:52;;;;;;;4.75;2.22;;;;;;;;;;10366873;28;20034;-60
2022/06/20 15:24:33;;;;;;;4.28;2.10;;;;;;;;;;10368763;28;20400;-61
2022/06/20 15:29:56;;;;;;;5.18;2.22;;;;;;;;;;10373514;28;20041;-59
2022/06/20 15:35:52;;;;;;;5.97;2.50;;;;;;;;;;10377397;28;20041;-58
2022/06/20 15:41:12;;;;;;;5.13;2.65;;;;;;;;;;10358075;28;20034;-61
2022/06/20 15:46:42;;;;;;;6.18;2.42;;;;;;;;;;10371191;28;20096;-63
2022/06/20 15:51:54;;;;;;;10.43;2.70;;;;;;;;;;10365523;28;20028;-62
2022/06/20 15:57:16;;;;;;;3.05;2.13;;;;;;;;;;10369678;28;20033;-54
2022/06/20 16:02:49;;;;;;;4.85;2.25;;;;;;;;;;10383266;28;20022;-60
2022/06/20 16:07:57;;;;;;;6.45;2.30;;;;;;;;;;10363700;28;20041;-60
2022/06/20 16:13:01;;;;;;;6.57;2.40;;;;;;;;;;10348458;28;20056;-62
2022/06/20 16:18:03;;;;;;;5.97;2.47;;;;;;;;;;10353293;28;20113;-62
2022/06/20 16:23:25;;;;;;;3.88;2.30;;;;;;;;;;10328981;28;20034;-61
2022/06/20 16:28:31;;;;;;;9.65;2.05;;;;;;;;;;10354300;28;20042;-62
2022/06/20 16:33:50;;;;;;;2.40;2.10;;;;;;;;;;10360843;28;20022;-62
2022/06/20 16:38:57;;;;;;;3.47;2.40;;;;;;;;;;10351830;28;20117;-60
2022/06/20 16:44:22;;;;;;;5.50;2.88;;;;;;;;;;10352160;28;20034;-63
2022/06/20 16:50:07;;;;;;;6.30;2.50;;;;;;;;;;10358728;28;20049;-62
2022/06/20 16:55:19;;;;;;;6.20;2.40;;;;;;;;;;10375877;28;20293;-61
2022/06/20 17:00:27;;;;;;;3.13;2.42;;;;;;;;;;10371094;28;20044;-62
2022/06/20 17:05:39;;;;;;;7.78;3.40;;;;;;;;;;10373771;28;20092;-61
2022/06/20 17:10:59;;;;;;;7.85;2.63;;;;;;;;;;10379937;28;20022;-61
2022/06/20 17:16:27;;;;;;;9.52;3.42;;;;;;;;;;10370258;28;20044;-61
2022/06/20 17:22:04;;;;;;;5.10;2.67;;;;;;;;;;10365063;28;20432;-60
2022/06/20 17:27:18;;;;;;;7.00;2.70;;;;;;;;;;10370985;28;20111;-62
2022/06/20 17:32:41;;;;;;;3.60;2.58;;;;;;;;;;10369551;28;20026;-61
2022/06/20 17:38:14;;;;;;;3.33;2.30;;;;;;;;;;10362172;28;20030;-58
2022/06/20 17:43:49;;;;;;;5.35;2.60;;;;;;;;;;10361473;28;20309;-58
2022/06/20 17:49:01;;;;;;;6.50;2.70;;;;;;;;;;10325172;28;20056;-58
2022/06/20 17:54:42;;;;;;;6.22;2.70;;;;;;;;;;10326845;28;20029;-58
2022/06/20 17:59:49;;;;;;;11.20;2.90;;;;;;;;;;10325986;28;20061;-58
2022/06/20 18:05:02;;;;;;;9.48;2.72;;;;;;;;;;10323587;28;20030;-58
2022/06/20 18:10:33;;;;;;;11.48;2.90;;;;;;;;;;10321151;28;20277;-58
2022/06/20 18:15:44;;;;;;;5.65;3.08;;;;;;;;;;10320976;28;20393;-58
2022/06/20 18:20:57;;;;;;;8.50;3.28;;;;;;;;;;10322320;28;20144;-58
2022/06/20 18:26:12;;;;;;;9.45;4.00;;;;;;;;;;10315093;28;20058;-58
2022/06/20 18:31:19;;;;;;;5.05;2.90;;;;;;;;;;10312281;28;20038;-58
2022/06/20 18:36:26;;;;;;;5.97;2.85;;;;;;;;;;10322140;28;20531;-58
2022/06/20 18:41:26;;;;;;;10.30;2.87;;;;;;;;;;10324082;28;20033;-58
2022/06/20 18:46:31;;;;;;;9.48;2.85;;;;;;;;;;10313520;28;20478;-58
2022/06/20 18:52:11;;;;;;;12.00;3.58;;;;;;;;;;10313464;28;20027;-61
2022/06/20 18:57:43;;;;;;;8.57;3.03;;;;;;;;;;10341411;28;20400;-58
2022/06/20 19:03:09;;;;;;;5.75;2.80;;;;;;;;;;10323995;28;20042;-58
2022/06/20 19:08:59;;;;;;;8.35;2.90;;;;;;;;;;10323984;28;20112;-58
2022/06/20 19:14:20;;;;;;;7.40;2.78;;;;;;;;;;10330209;28;20282;-57
2022/06/20 19:20:19;;;;;;;6.10;3.03;;;;;;;;;;10343403;28;20034;-58
2022/06/20 19:25:28;;;;;;;9.88;3.00;;;;;;;;;;10324825;28;20042;-59
2022/06/20 19:30:42;;;;;;;8.13;2.63;;;;;;;;;;10330042;28;20116;-59
2022/06/20 19:36:04;;;;;;;7.47;2.90;;;;;;;;;;10320297;28;20035;-59
2022/06/20 19:41:22;;;;;;;4.65;2.55;;;;;;;;;;10323637;28;20049;-57
2022/06/20 19:46:34;;;;;;;9.52;3.13;;;;;;;;;;10322185;28;20436;-58
2022/06/20 19:51:35;;;;;;;9.10;3.35;;;;;;;;;;10323423;28;20041;-59
2022/06/20 19:57:09;;;;;;;13.07;3.40;;;;;;;;;;10327320;28;20438;-59
2022/06/20 20:02:16;;;;;;;7.22;3.08;;;;;;;;;;10328302;28;20034;-59
2022/06/20 20:07:41;;;;;;;4.45;2.70;;;;;;;;;;10329791;28;20281;-56
2022/06/20 20:12:45;;;;;;;5.30;2.80;;;;;;;;;;10319441;28;20505;-59
2022/06/20 20:18:23;;;;;;;4.78;2.80;;;;;;;;;;10329391;28;20026;-59
2022/06/20 20:23:25;;;;;;;3.97;2.53;;;;;;;;;;10322097;28;20043;-59
2022/06/20 20:28:33;;;;;;;5.35;2.55;;;;;;;;;;10326019;28;20030;-60
2022/06/20 20:34:23;;;;;;;6.25;2.88;;;;;;;;;;10312724;28;20034;-60
2022/06/20 20:40:06;;;;;;;7.00;2.63;;;;;;;;;;10328491;28;20108;-58
2022/06/20 20:46:15;;;;;;;4.43;2.65;;;;;;;;;;10325782;28;20022;-59
2022/06/20 20:51:25;;;;;;;3.53;2.38;;;;;;;;;;10319313;28;20031;-59
2022/06/20 20:56:50;;;;;;;4.32;2.80;;;;;;;;;;10332606;28;20022;-59
2022/06/20 21:01:51;;;;;;;2.45;2.25;;;;;;;;;;10332194;28;20056;-60
2022/06/20 21:07:00;;;;;;;7.10;2.97;;;;;;;;;;10331865;28;20461;-59
2022/06/20 21:12:03;;;;;;;5.43;2.20;;;;;;;;;;10330404;28;20412;-60
2022/06/20 21:17:04;;;;;;;6.40;2.40;;;;;;;;;;10331751;28;20026;-60
2022/06/20 21:22:09;;;;;;;4.82;2.83;;;;;;;;;;10327353;28;20033;-59
2022/06/20 21:27:15;;;;;;;7.20;2.67;;;;;;;;;;10331681;28;20509;-59
2022/06/20 21:32:26;;;;;;;2.28;1.90;;;;;;;;;;10311054;28;20031;-59
2022/06/20 21:37:29;;;;;;;4.13;2.30;;;;;;;;;;10327954;28;20065;-58
2022/06/20 21:42:39;;;;;;;5.90;2.63;;;;;;;;;;10327777;28;20058;-58
2022/06/20 21:47:43;;;;;;;4.95;2.50;;;;;;;;;;10328462;28;20500;-59
2022/06/20 21:52:46;;;;;;;6.10;2.70;;;;;;;;;;10325052;28;20030;-58
2022/06/20 21:58:20;;;;;;;7.22;2.47;;;;;;;;;;10319179;28;20296;-59
2022/06/20 22:08:44;;;;;;;4.28;2.55;;;;;;;;;;10326853;28;20030;-58
2022/06/20 22:14:01;;;;;;;2.53;2.08;;;;;;;;;;10316625;28;20030;-58
2022/06/20 22:19:23;;;;;;;4.47;2.20;;;;;;;;;;10323139;28;20037;-58
2022/06/20 22:24:28;;;;;;;4.53;2.35;;;;;;;;;;10322734;28;20038;-58
2022/06/20 22:29:55;;;;;;;5.75;2.47;;;;;;;;;;10324473;28;20034;-58
2022/06/20 22:35:18;;;;;;;3.17;2.20;;;;;;;;;;10323241;28;20049;-58
2022/06/20 22:40:24;;;;;;;2.42;2.13;;;;;;;;;;10328309;28;20552;-59
2022/06/20 22:45:33;;;;;;;3.28;2.40;;;;;;;;;;10328830;28;20033;-58
2022/06/20 22:50:45;;;;;;;17.05;2.35;;;;;;;;;;10328189;28;20121;-59
2022/06/20 22:56:21;;;;;;;5.07;2.60;;;;;;;;;;10327542;28;20049;-59
2022/06/20 23:01:27;;;;;;;2.75;2.05;;;;;;;;;;10323760;28;20049;-59
2022/06/20 23:06:30;;;;;;;3.17;1.98;;;;;;;;;;10329046;28;20019;-59
2022/06/20 23:11:31;;;;;;;3.72;2.35;;;;;;;;;;10328156;28;20038;-59
2022/06/20 23:21:50;;;;;;;2.33;1.90;;;;;;;;;;10328231;28;20065;-58
2022/06/20 23:26:51;;;;;;;2.28;2.00;;;;;;;;;;10327878;28;20516;-58
2022/06/20 23:31:55;;;;;;;2.38;2.17;;;;;;;;;;10322103;28;20390;-59
2022/06/20 23:36:58;;;;;;;2.10;1.77;;;;;;;;;;10321162;28;20069;-60
2022/06/20 23:41:58;;;;;;;2.80;2.15;;;;;;;;;;10317826;28;20233;-59
2022/06/20 23:46:59;;;;;;;2.20;2.00;;;;;;;;;;10326225;28;20215;-59
2022/06/20 23:52:00;;;;;;;6.68;2.20;;;;;;;;;;10326694;28;20421;-59
2022/06/20 23:57:00;;;;;;;2.30;2.10;;;;;;;;;;10325817;28;20338;-59
